Share

Charles City, IA

KIAOSAGE1 Elev 1173 ft | 43.28 °N, 92.82 °W | Change Station

Current weather conditions updated 11 seconds ago

Clear
Clear
43.4 °F
Feels Like 43 °F
N
0.0
Wind Variable Wind from SE
Gusts 0.0 mph
Sunrise 6:23 AM
Sunset 7:56 PM
Moon Waning Gibbous

Tomorrow is forecast to be Much Warmer than today. A few showers developing late tomorrow night.

Pressure 30.18 in
Visibility 10.0 miles
Clouds Clear
Windchill 43 °F
Dew Point 30 °F
Humidity 60%
Rainfall 0.00 in
Snow Depth Not available.
UV 0 out of 16
Pollen 9.70 out of 12
Air Quality Not available.
Flu Activity Sporadic
METAR KMCW 190353Z AUTO 13013KT 10SM CLR 08/00 A3017 RMK AO2 SLP220 T00780000

More Conditions Fewer Conditions

Pressure 30.18 in
Visibility 10.0 miles
Clouds Clear
Windchill 43 °F
Dew Point 30 °F
Humidity 60%
Rainfall 0.00 in
Snow Depth Not available.
UV 0 out of 16
Pollen 9.70 out of 12
Air Quality Not available.
Flu Activity Sporadic
METAR KMCW 190353Z AUTO 13013KT 10SM CLR 08/00 A3017 RMK AO2 SLP220 T00780000

More Conditions Fewer Conditions

10-Day Weather Forecast

Almanac

Astronomy

Apr. 18, 2014 Rise Set
Actual Time 6:23 AM CDT 7:56 PM CDT
Civil Twilight 5:54 AM CDT 8:26 PM CDT
Nautical Twilight 5:18 AM CDT 9:02 PM CDT
Astronomical Twilight 4:39 AM CDT 9:41 PM CDT
Moon 11:46 PM CDT (4/18) 8:43 AM CDT (4/18)
Length of Visible Light 14h 32m
Length of Day
13h 32m
Tomorrow will be 2m 45s longer.
Waning Gibbous, 83% of the Moon is Illuminated
Apr 19
Waning Gibbous
Apr 22
Last Quarter
Apr 29
New
May 6
First Quarter
May 14
Full

Today's Extremes

State Highs State Lows

Community

  • Sunset Silhouettes
    Sunset Silhouettes
  • FL sunset Perico Isle
    FL sunset Perico Isle
  • Cloudy spring view
    Cloudy spring view
  • Old barn
    Old barn
  • What's for Lunch?
    What's for Lunch?

WunderPhotos

Upload Photos

1,702,637 photos uploaded!

WunderBlogs® & News

Nearby

Snow Depth

Station Depth Elevation
No new snow has been reported.

Coastal Water Temperatures

Place Temperature
No Stations Reporting

Earthquake Activity

City Distance Mag. Time & Date
No recent earthquake activity has been reported nearby.
Minimum magnitude displayed is 2.5.

Nearby Weather Stations

Station Location Temp. Windchill Dew Point Humidity Wind Precip. Elev Updated Type
Osage, IA 43.4 °F 43 °F 30 °F 60% SE  at  0.0 mph 0.00 in / hr 1173 ft 11:24 PM CDT Normal
Riceville, IA, Riceville, IA 41.9 °F 36 °F 34 °F 74% ESE  at  9.0 mph 0.00 in / hr 1289 ft 11:10 PM CDT Normal
Wartburg College Observatory, Waverly, IA 49.2 °F 49 °F 35 °F 58% ESE  at  0.0 mph 0.00 in / hr 928 ft 11:25 PM CDT Rapid Fire

Show More Stations Show Fewer Stations

What do you think?

We're not finished. Please let us know what you like, what you don't like, and what you are still missing.